Time;durP1;ratioP1;P1;durP2;ratioP2;P2;SDS_P1;SDS_P2;PMS_P1;PMS_P2;Temp;Humidity;BMP_temperature;BMP_pressure;BME280_temperature;BME280_humidity;BME280_pressure;Samples;Min_cycle;Max_cycle;Signal;HPM_P1;HPM_P2
2023/10/22 00:01:33;;;;;;;3.63;2.03;;;10.10;99.00;;;;;;4996798;28;20028;-78
2023/10/22 00:03:59;;;;;;;4.63;2.00;;;10.20;99.40;;;;;;5038190;28;20494;-78
2023/10/22 00:06:24;;;;;;;4.72;1.70;;;10.20;99.20;;;;;;5022965;28;20574;-77
2023/10/22 00:08:50;;;;;;;6.50;1.90;;;10.20;98.80;;;;;;5028017;28;20218;-78
2023/10/22 00:11:16;;;;;;;3.45;1.80;;;10.20;98.50;;;;;;5014464;28;20044;-77
2023/10/22 00:13:41;;;;;;;2.50;1.73;;;10.20;98.50;;;;;;5030147;28;20036;-78
2023/10/22 00:16:07;;;;;;;5.20;1.90;;;10.20;98.40;;;;;;5020197;28;20288;-77
2023/10/22 00:18:33;;;;;;;5.68;2.00;;;10.20;98.80;;;;;;5036696;28;20032;-78
2023/10/22 00:20:58;;;;;;;5.30;1.80;;;10.20;98.50;;;;;;5017122;28;20037;-78
2023/10/22 00:23:24;;;;;;;2.60;1.63;;;10.30;98.50;;;;;;5037755;28;20063;-77
2023/10/22 00:25:49;;;;;;;5.07;1.92;;;10.30;98.40;;;;;;5040108;28;20413;-78
2023/10/22 00:28:15;;;;;;;3.72;1.65;;;10.30;98.30;;;;;;5019955;28;20033;-78
2023/10/22 00:30:41;;;;;;;4.25;1.75;;;10.30;98.40;;;;;;5036754;28;20963;-78
2023/10/22 00:33:06;;;;;;;5.00;1.77;;;10.30;98.20;;;;;;5016691;28;20501;-78
2023/10/22 00:35:32;;;;;;;4.15;1.50;;;10.30;98.20;;;;;;5021497;28;20038;-78
2023/10/22 00:37:58;;;;;;;3.67;1.95;;;10.40;98.10;;;;;;5010173;28;20507;-78
2023/10/22 00:40:23;;;;;;;5.30;1.63;;;10.40;98.30;;;;;;5023881;28;20041;-77
2023/10/22 00:42:49;;;;;;;5.50;1.60;;;10.40;98.20;;;;;;5017977;28;20647;-78
2023/10/22 00:45:15;;;;;;;4.22;1.55;;;10.40;98.20;;;;;;5029006;28;20033;-78
2023/10/22 00:47:41;;;;;;;6.82;2.22;;;10.40;98.20;;;;;;5015355;28;20033;-78
2023/10/22 00:50:07;;;;;;;3.47;1.80;;;10.40;98.20;;;;;;5038808;28;20025;-79
2023/10/22 00:52:32;;;;;;;3.15;1.40;;;10.40;98.00;;;;;;5022385;28;20833;-78
2023/10/22 00:54:59;;;;;;;4.45;1.88;;;10.40;98.10;;;;;;5026656;28;20141;-79
2023/10/22 00:57:25;;;;;;;3.03;1.80;;;10.50;98.30;;;;;;5022377;28;20154;-78
2023/10/22 00:59:52;;;;;;;5.10;1.70;;;10.50;98.20;;;;;;5036573;28;20151;-79
2023/10/22 01:02:19;;;;;;;6.10;1.85;;;10.50;98.20;;;;;;5020580;28;20115;-78
2023/10/22 01:04:45;;;;;;;3.45;1.65;;;10.50;98.10;;;;;;5037458;28;20029;-78
2023/10/22 01:07:11;;;;;;;5.65;1.90;;;10.50;98.20;;;;;;5035998;28;20039;-78
2023/10/22 01:09:37;;;;;;;5.30;1.50;;;10.50;98.20;;;;;;5021115;28;20074;-78
2023/10/22 01:12:04;;;;;;;3.55;1.50;;;10.50;98.40;;;;;;5033231;28;20030;-79
2023/10/22 01:14:30;;;;;;;3.03;1.33;;;10.60;98.00;;;;;;5015789;28;20029;-77
2023/10/22 01:16:56;;;;;;;4.07;1.13;;;10.50;97.80;;;;;;5038056;28;20044;-78
2023/10/22 01:19:22;;;;;;;7.03;1.70;;;10.50;97.80;;;;;;5025839;28;20040;-78
2023/10/22 01:21:48;;;;;;;6.60;1.33;;;10.50;97.70;;;;;;5036159;28;20033;-78
2023/10/22 01:24:14;;;;;;;6.20;1.25;;;10.50;97.70;;;;;;5027325;28;20484;-78
2023/10/22 01:26:41;;;;;;;3.85;1.25;;;10.40;97.70;;;;;;5039969;28;20055;-78
2023/10/22 01:29:07;;;;;;;4.25;1.15;;;10.40;97.70;;;;;;5024788;28;20078;-78
2023/10/22 01:31:33;;;;;;;4.13;1.15;;;10.40;97.60;;;;;;5038653;28;20045;-78
2023/10/22 01:33:58;;;;;;;4.38;1.25;;;10.40;97.70;;;;;;5010292;28;20026;-78
2023/10/22 01:36:24;;;;;;;7.93;1.75;;;10.40;97.80;;;;;;5029896;28;20025;-78
2023/10/22 01:38:50;;;;;;;4.20;1.40;;;10.40;98.00;;;;;;5006309;28;20040;-78
2023/10/22 01:41:15;;;;;;;3.08;1.40;;;10.40;98.00;;;;;;5030942;28;20041;-78
2023/10/22 01:43:41;;;;;;;4.40;1.33;;;10.40;98.10;;;;;;5023638;28;20059;-78
2023/10/22 01:46:06;;;;;;;5.35;1.58;;;10.50;98.20;;;;;;5035605;28;20036;-78
2023/10/22 01:48:32;;;;;;;3.17;1.40;;;10.40;98.40;;;;;;5033023;28;20033;-78
2023/10/22 01:50:58;;;;;;;4.57;1.58;;;10.50;98.30;;;;;;5024957;28;20040;-79
2023/10/22 01:53:24;;;;;;;6.60;1.60;;;10.50;97.90;;;;;;5037105;28;20040;-78
2023/10/22 01:55:50;;;;;;;7.22;1.70;;;10.60;97.90;;;;;;5023239;28;20025;-77
2023/10/22 01:58:16;;;;;;;4.28;1.38;;;10.60;97.80;;;;;;5039522;28;20413;-77
2023/10/22 02:00:41;;;;;;;5.30;1.70;;;10.60;98.10;;;;;;5019243;28;20179;-77
2023/10/22 02:03:07;;;;;;;6.30;1.67;;;10.60;98.00;;;;;;5026941;28;20419;-78
2023/10/22 02:11:15;;;;;;;3.88;1.40;;;10.60;98.20;;;;;;5013313;28;20059;-77
2023/10/22 02:13:41;;;;;;;7.38;1.92;;;10.70;98.10;;;;;;5015466;28;20033;-77
2023/10/22 02:16:07;;;;;;;4.50;1.73;;;10.70;98.00;;;;;;5016633;28;20501;-77
2023/10/22 02:18:32;;;;;;;8.13;1.60;;;10.70;97.80;;;;;;5023588;28;20039;-78
2023/10/22 02:21:00;;;;;;;3.53;1.42;;;10.70;97.80;;;;;;5023248;28;20036;-77
2023/10/22 02:23:27;;;;;;;5.78;1.63;;;10.70;97.70;;;;;;5019993;28;20028;-77
2023/10/22 02:25:53;;;;;;;6.13;1.67;;;10.70;97.70;;;;;;5036018;28;20029;-77
2023/10/22 02:28:19;;;;;;;3.85;1.60;;;10.70;97.80;;;;;;5026401;28;20558;-79
2023/10/22 02:30:47;;;;;;;3.58;1.63;;;10.70;97.90;;;;;;5037626;28;20037;-79
2023/10/22 02:33:13;;;;;;;4.90;1.80;;;10.70;98.00;;;;;;5034774;28;20082;-79
2023/10/22 02:35:44;;;;;;;4.95;1.25;;;10.70;98.10;;;;;;5024209;28;20040;-79
2023/10/22 02:38:13;;;;;;;3.35;1.35;;;10.70;98.10;;;;;;5043358;28;20028;-79
2023/10/22 02:40:39;;;;;;;3.92;1.67;;;10.70;98.00;;;;;;5022650;28;20060;-79
2023/10/22 02:43:05;;;;;;;5.18;1.77;;;10.70;98.00;;;;;;5030153;28;20712;-79
2023/10/22 02:45:31;;;;;;;2.65;1.60;;;10.70;98.20;;;;;;5014679;28;20209;-79
2023/10/22 02:47:58;;;;;;;4.50;1.40;;;10.60;98.30;;;;;;5025997;28;21734;-79
2023/10/22 02:50:24;;;;;;;3.50;1.42;;;10.50;98.30;;;;;;5015812;28;20113;-79
2023/10/22 02:52:51;;;;;;;6.85;1.75;;;10.40;98.50;;;;;;5035693;28;20075;-79
2023/10/22 02:55:17;;;;;;;5.65;1.50;;;10.30;98.60;;;;;;5022063;28;20577;-79
2023/10/22 02:57:43;;;;;;;2.60;1.88;;;10.20;98.80;;;;;;5034946;28;20037;-79
2023/10/22 03:00:10;;;;;;;3.83;1.95;;;10.10;98.90;;;;;;5020236;28;20301;-80
2023/10/22 03:02:37;;;;;;;5.20;2.10;;;10.00;99.10;;;;;;5031944;28;20115;-79
2023/10/22 03:05:04;;;;;;;5.28;2.13;;;9.90;99.20;;;;;;5024797;28;20082;-79
2023/10/22 03:07:30;;;;;;;8.25;3.33;;;9.80;99.50;;;;;;5043573;28;20489;-79
2023/10/22 03:09:56;;;;;;;6.47;2.63;;;9.70;99.60;;;;;;5035154;28;20128;-79
2023/10/22 03:12:21;;;;;;;8.25;2.22;;;9.70;99.80;;;;;;5033477;28;20029;-78
2023/10/22 03:14:51;;;;;;;4.72;1.80;;;9.60;99.90;;;;;;5025626;28;20052;-79
2023/10/22 03:17:17;;;;;;;3.58;1.65;;;9.60;99.90;;;;;;5021109;28;20078;-78
2023/10/22 03:19:43;;;;;;;3.25;1.60;;;9.60;99.90;;;;;;5034324;28;20028;-78
2023/10/22 03:22:09;;;;;;;10.65;1.73;;;9.60;99.90;;;;;;5010346;28;20499;-78
2023/10/22 03:24:34;;;;;;;9.43;2.17;;;9.50;99.90;;;;;;5030065;28;20048;-79
2023/10/22 03:27:00;;;;;;;8.48;1.15;;;9.40;99.90;;;;;;5028444;28;20168;-79
2023/10/22 03:29:27;;;;;;;4.32;1.20;;;9.40;99.90;;;;;;5039611;28;20033;-78
2023/10/22 03:31:52;;;;;;;4.50;1.40;;;9.40;99.90;;;;;;5023454;28;20101;-79
2023/10/22 03:34:18;;;;;;;7.90;1.30;;;9.30;99.90;;;;;;5028926;28;20032;-78
2023/10/22 03:36:44;;;;;;;6.32;1.27;;;9.20;99.90;;;;;;5020799;28;20032;-79
2023/10/22 03:39:11;;;;;;;4.95;1.30;;;9.20;99.90;;;;;;5036008;28;20033;-78
2023/10/22 03:41:37;;;;;;;6.18;1.05;;;9.20;99.90;;;;;;5016087;28;20187;-79
2023/10/22 03:44:04;;;;;;;4.22;1.20;;;9.20;99.90;;;;;;5035941;28;20041;-79
2023/10/22 03:46:30;;;;;;;6.72;1.15;;;9.10;99.90;;;;;;5021806;28;20025;-78
2023/10/22 03:48:57;;;;;;;6.28;0.90;;;9.10;99.90;;;;;;5034455;28;20033;-79
2023/10/22 03:51:23;;;;;;;6.43;1.30;;;9.00;99.90;;;;;;5022863;28;20676;-79
2023/10/22 03:53:49;;;;;;;3.80;1.30;;;8.90;99.90;;;;;;5033415;28;20025;-79
2023/10/22 03:56:15;;;;;;;11.52;1.30;;;8.80;99.90;;;;;;5028632;28;20040;-79
2023/10/22 03:58:41;;;;;;;5.57;1.58;;;8.80;99.90;;;;;;5024681;28;20983;-79
2023/10/22 04:01:06;;;;;;;2.60;0.80;;;8.70;99.90;;;;;;5030308;28;20032;-79
2023/10/22 04:03:32;;;;;;;3.58;1.05;;;8.70;99.90;;;;;;5022335;28;20233;-79
2023/10/22 04:05:58;;;;;;;4.80;1.50;;;8.60;99.90;;;;;;5034179;28;20043;-79
2023/10/22 04:08:25;;;;;;;7.10;1.50;;;8.50;99.90;;;;;;5021980;28;20048;-79
2023/10/22 04:10:51;;;;;;;11.05;1.27;;;8.40;99.90;;;;;;5035004;28;20059;-79
2023/10/22 04:13:17;;;;;;;4.82;0.90;;;8.40;99.90;;;;;;5023406;28;20508;-79
2023/10/22 04:15:45;;;;;;;4.88;0.90;;;8.30;99.90;;;;;;5028317;28;20037;-79
2023/10/22 04:18:11;;;;;;;3.47;0.93;;;8.30;99.90;;;;;;5025060;28;20075;-79
2023/10/22 04:20:37;;;;;;;2.90;0.82;;;8.20;99.90;;;;;;5032423;28;20044;-79
2023/10/22 04:23:03;;;;;;;4.38;1.05;;;8.10;99.90;;;;;;5022824;28;20037;-79
2023/10/22 04:25:28;;;;;;;2.72;0.98;;;8.10;99.90;;;;;;5035528;28;20119;-79
2023/10/22 04:27:54;;;;;;;4.25;1.00;;;8.00;99.90;;;;;;5028736;28;20095;-79
2023/10/22 04:30:20;;;;;;;2.92;1.00;;;8.00;99.90;;;;;;5035234;28;20040;-79
2023/10/22 04:32:46;;;;;;;3.25;0.90;;;8.00;99.90;;;;;;5019034;28;20032;-79
2023/10/22 04:35:12;;;;;;;5.40;1.00;;;7.90;99.90;;;;;;5041519;28;20037;-79
2023/10/22 04:37:38;;;;;;;2.08;0.82;;;7.90;99.90;;;;;;5034217;28;20123;-78
2023/10/22 04:40:06;;;;;;;5.13;1.10;;;7.90;99.90;;;;;;5036716;28;20092;-79
2023/10/22 04:42:31;;;;;;;2.97;1.00;;;7.90;99.90;;;;;;5032224;28;20030;-79
2023/10/22 04:44:57;;;;;;;7.68;1.10;;;7.90;99.90;;;;;;5027669;28;20040;-78
2023/10/22 04:47:22;;;;;;;3.72;1.08;;;7.80;99.90;;;;;;5036684;28;20041;-79
2023/10/22 04:49:51;;;;;;;6.20;1.10;;;7.80;99.90;;;;;;5023667;28;20028;-79
2023/10/22 04:52:27;;;;;;;3.58;0.82;;;7.80;99.90;;;;;;5042105;28;20032;-78
2023/10/22 04:54:53;;;;;;;3.67;1.00;;;7.80;99.90;;;;;;5026385;28;20094;-78
2023/10/22 04:57:19;;;;;;;2.92;0.90;;;7.70;99.90;;;;;;5031212;28;21706;-77
2023/10/22 04:59:44;;;;;;;1.50;0.70;;;7.60;99.90;;;;;;5016896;28;20080;-78
2023/10/22 05:02:10;;;;;;;3.72;0.77;;;7.60;99.90;;;;;;5029615;28;21033;-78
2023/10/22 05:04:35;;;;;;;2.97;0.82;;;7.60;99.90;;;;;;5025953;28;20134;-78
2023/10/22 05:07:01;;;;;;;4.75;1.00;;;7.50;99.90;;;;;;5037504;28;20029;-78
2023/10/22 05:09:27;;;;;;;3.45;1.17;;;7.50;99.90;;;;;;5023976;28;20081;-77
2023/10/22 05:11:52;;;;;;;1.38;0.85;;;7.60;99.90;;;;;;5036996;28;20029;-78
2023/10/22 05:14:18;;;;;;;2.90;0.73;;;7.60;99.90;;;;;;5018466;28;20040;-78
2023/10/22 05:16:44;;;;;;;4.70;0.90;;;7.70;99.90;;;;;;5035203;28;20044;-78
2023/10/22 05:19:10;;;;;;;3.63;1.13;;;7.60;99.90;;;;;;5026538;28;20386;-78
2023/10/22 05:21:37;;;;;;;5.07;1.30;;;7.70;99.90;;;;;;5034937;28;20033;-78
2023/10/22 05:24:03;;;;;;;2.63;1.20;;;7.70;99.90;;;;;;5039300;28;20033;-78
2023/10/22 05:26:29;;;;;;;3.33;1.00;;;7.70;99.90;;;;;;5017738;28;20048;-78
2023/10/22 05:28:55;;;;;;;4.55;1.00;;;7.70;99.90;;;;;;5010121;28;20034;-78
2023/10/22 05:31:20;;;;;;;2.50;0.90;;;7.80;99.90;;;;;;5001511;28;20026;-77
2023/10/22 05:33:46;;;;;;;3.80;0.90;;;7.80;99.90;;;;;;5016699;28;20030;-78
2023/10/22 05:36:15;;;;;;;2.78;0.85;;;7.80;99.90;;;;;;4998517;28;20378;-78
2023/10/22 05:38:41;;;;;;;7.50;0.98;;;7.80;99.90;;;;;;5016305;28;20510;-78
2023/10/22 05:41:07;;;;;;;3.63;1.00;;;7.80;99.90;;;;;;5002862;28;20037;-77
2023/10/22 05:43:33;;;;;;;4.68;1.10;;;7.70;99.90;;;;;;5019503;28;20161;-78
2023/10/22 05:45:58;;;;;;;2.63;1.05;;;7.70;99.90;;;;;;5008961;28;20567;-77
2023/10/22 05:48:24;;;;;;;2.75;1.08;;;7.60;99.90;;;;;;5012730;28;20033;-78
2023/10/22 05:50:50;;;;;;;4.13;1.02;;;7.50;99.90;;;;;;5003744;28;20033;-78
2023/10/22 05:53:16;;;;;;;5.45;1.38;;;7.40;99.90;;;;;;5019839;28;20088;-78
2023/10/22 05:55:42;;;;;;;7.18;1.00;;;7.40;99.90;;;;;;5004315;28;20352;-78
2023/10/22 05:58:07;;;;;;;2.53;0.80;;;7.40;99.90;;;;;;5020202;28;20029;-78
2023/10/22 06:00:33;;;;;;;2.42;0.80;;;7.40;99.90;;;;;;4999771;28;20497;-77
2023/10/22 06:02:58;;;;;;;5.25;1.05;;;7.30;99.90;;;;;;5005292;28;20104;-77
2023/10/22 06:05:24;;;;;;;4.00;1.10;;;7.30;99.90;;;;;;5015491;28;20069;-78
2023/10/22 06:07:52;;;;;;;3.40;1.05;;;7.20;99.90;;;;;;5001012;28;20169;-78
2023/10/22 06:10:18;;;;;;;9.02;1.10;;;7.20;99.90;;;;;;5003169;28;20126;-78
2023/10/22 06:12:43;;;;;;;3.72;0.95;;;7.10;99.90;;;;;;4998598;28;20029;-77
2023/10/22 06:15:09;;;;;;;2.30;1.30;;;7.00;99.90;;;;;;5007709;28;20063;-77
2023/10/22 06:17:36;;;;;;;2.15;1.10;;;7.00;99.90;;;;;;5005302;28;20409;-77
2023/10/22 06:20:01;;;;;;;1.90;0.85;;;6.90;99.90;;;;;;5002398;28;20450;-77
2023/10/22 06:22:27;;;;;;;2.28;1.00;;;6.90;99.90;;;;;;5001980;28;20032;-77
2023/10/22 06:24:53;;;;;;;2.28;1.00;;;6.80;99.90;;;;;;5019613;28;20069;-77
2023/10/22 06:27:18;;;;;;;1.25;0.90;;;6.80;99.90;;;;;;5008659;28;20045;-77
2023/10/22 06:29:48;;;;;;;6.55;1.00;;;6.70;99.90;;;;;;5023133;28;20485;-77
2023/10/22 06:32:14;;;;;;;4.90;0.85;;;6.70;99.90;;;;;;5011822;28;21239;-76
2023/10/22 06:34:39;;;;;;;5.93;1.40;;;6.70;99.90;;;;;;5019794;28;20098;-76
2023/10/22 06:37:05;;;;;;;5.85;1.05;;;6.70;99.90;;;;;;5009145;28;20033;-78
2023/10/22 06:39:31;;;;;;;2.97;1.20;;;6.60;99.90;;;;;;5021107;28;20045;-77
2023/10/22 06:41:57;;;;;;;1.90;1.00;;;6.60;99.90;;;;;;5004169;28;20045;-76
2023/10/22 06:44:22;;;;;;;3.97;1.15;;;6.60;99.90;;;;;;5016619;28;20044;-76
2023/10/22 06:46:48;;;;;;;5.13;1.40;;;6.60;99.90;;;;;;5022553;28;20029;-77
2023/10/22 06:49:13;;;;;;;4.18;1.00;;;6.60;99.90;;;;;;4999352;28;20037;-77
2023/10/22 06:51:39;;;;;;;6.85;1.30;;;6.50;99.90;;;;;;5024208;28;20057;-77
2023/10/22 06:54:05;;;;;;;3.88;1.30;;;6.50;99.90;;;;;;5007194;28;20037;-77
2023/10/22 06:56:31;;;;;;;3.38;1.27;;;6.60;99.90;;;;;;5023053;28;20076;-76
2023/10/22 06:58:57;;;;;;;4.43;1.60;;;6.60;99.90;;;;;;5010516;28;20583;-77
2023/10/22 07:01:22;;;;;;;7.90;1.65;;;6.60;99.90;;;;;;5021703;28;20045;-76
2023/10/22 07:03:48;;;;;;;3.28;1.40;;;6.80;99.90;;;;;;5006888;28;20038;-76
2023/10/22 07:06:15;;;;;;;5.95;2.17;;;6.90;99.90;;;;;;5023008;28;20331;-76
2023/10/22 07:08:43;;;;;;;5.03;3.88;;;7.00;99.90;;;;;;5005061;28;20056;-77
2023/10/22 07:11:08;;;;;;;6.32;5.35;;;7.00;99.90;;;;;;5021674;28;20025;-77
2023/10/22 07:13:34;;;;;;;5.43;2.45;;;7.00;99.90;;;;;;5024914;28;20051;-77
2023/10/22 07:15:59;;;;;;;3.42;1.55;;;7.10;99.90;;;;;;5046901;28;20021;-76
2023/10/22 07:18:25;;;;;;;8.35;1.65;;;7.10;99.90;;;;;;5038802;28;20038;-76
2023/10/22 07:20:51;;;;;;;4.13;1.23;;;7.10;99.90;;;;;;5045513;28;20915;-77
2023/10/22 07:23:17;;;;;;;2.53;1.02;;;7.20;99.90;;;;;;5025024;28;20059;-77
2023/10/22 07:25:43;;;;;;;4.75;1.33;;;7.20;99.90;;;;;;5048509;28;20042;-76
2023/10/22 07:28:08;;;;;;;4.32;1.23;;;7.10;99.90;;;;;;5042501;28;20029;-77
2023/10/22 07:30:34;;;;;;;2.90;1.50;;;7.20;99.90;;;;;;5009462;28;20045;-77
2023/10/22 07:33:00;;;;;;;6.10;1.55;;;7.20;99.90;;;;;;5016191;28;20460;-77
2023/10/22 07:35:25;;;;;;;2.42;1.17;;;7.30;99.90;;;;;;4996270;28;20552;-76
2023/10/22 07:37:51;;;;;;;2.15;1.10;;;7.40;99.90;;;;;;5012105;28;20045;-77
2023/10/22 07:40:17;;;;;;;8.38;0.93;;;7.50;99.90;;;;;;4999119;28;20025;-77
2023/10/22 07:42:44;;;;;;;2.25;0.80;;;7.60;99.90;;;;;;5009275;28;20033;-77
2023/10/22 07:45:10;;;;;;;6.25;0.80;;;7.70;99.90;;;;;;5005416;28;20044;-77
2023/10/22 07:47:37;;;;;;;5.28;0.80;;;7.80;99.90;;;;;;5016652;28;20045;-76
2023/10/22 07:50:04;;;;;;;6.75;2.45;;;8.00;99.90;;;;;;4995909;28;20171;-76
2023/10/22 07:52:31;;;;;;;1.95;0.93;;;8.30;99.90;;;;;;5013748;28;20041;-76
2023/10/22 07:54:57;;;;;;;5.03;1.00;;;8.40;99.90;;;;;;4998066;28;21174;-77
2023/10/22 07:57:25;;;;;;;5.22;1.13;;;8.60;99.90;;;;;;5013473;28;20099;-76
2023/10/22 07:59:51;;;;;;;1.20;0.90;;;8.60;99.90;;;;;;4998640;28;20663;-76
2023/10/22 08:02:17;;;;;;;4.50;0.80;;;8.70;99.90;;;;;;5007467;28;20043;-76
2023/10/22 08:04:42;;;;;;;3.80;0.98;;;8.80;99.90;;;;;;5002297;28;20042;-76
2023/10/22 08:07:08;;;;;;;8.07;1.08;;;8.90;99.90;;;;;;5011610;28;20194;-76
2023/10/22 08:09:34;;;;;;;4.80;0.85;;;8.90;99.90;;;;;;5002122;28;20060;-76
2023/10/22 08:11:59;;;;;;;4.85;1.10;;;9.10;99.90;;;;;;5004103;28;20048;-76
2023/10/22 08:14:25;;;;;;;2.05;0.80;;;9.20;99.90;;;;;;5010763;28;20033;-76
2023/10/22 08:16:51;;;;;;;4.25;0.90;;;9.40;99.90;;;;;;4997144;28;20038;-77
2023/10/22 08:19:17;;;;;;;8.75;1.00;;;9.50;99.90;;;;;;5013130;28;20100;-78
2023/10/22 08:21:42;;;;;;;5.45;1.15;;;9.60;99.90;;;;;;4997298;28;20037;-77
2023/10/22 08:24:08;;;;;;;7.45;1.23;;;9.80;99.90;;;;;;5009627;28;20029;-77
2023/10/22 08:26:34;;;;;;;6.88;3.03;;;9.90;99.90;;;;;;5010595;28;20062;-77
2023/10/22 08:28:59;;;;;;;7.90;4.43;;;10.20;99.90;;;;;;5031076;28;20063;-78
2023/10/22 08:31:25;;;;;;;8.73;2.85;;;10.50;99.90;;;;;;5022205;28;20036;-77
2023/10/22 08:33:51;;;;;;;3.42;2.00;;;10.80;99.90;;;;;;5036218;28;20435;-78
2023/10/22 08:36:17;;;;;;;4.72;2.00;;;11.20;99.90;;;;;;5014276;28;20040;-77
2023/10/22 08:38:43;;;;;;;4.20;2.60;;;11.40;99.30;;;;;;5032361;28;20563;-77
2023/10/22 08:41:20;;;;;;;4.03;1.77;;;11.70;98.90;;;;;;5017185;28;20116;-78
2023/10/22 08:43:48;;;;;;;4.68;1.17;;;12.00;97.90;;;;;;5029066;28;20033;-77
2023/10/22 08:46:14;;;;;;;5.82;1.75;;;12.30;97.00;;;;;;5022672;28;20514;-78
2023/10/22 08:48:40;;;;;;;4.85;0.93;;;12.50;95.50;;;;;;5030638;28;20120;-78
2023/10/22 08:51:07;;;;;;;3.97;0.90;;;12.70;95.30;;;;;;5020078;28;20029;-78
2023/10/22 08:53:33;;;;;;;2.33;0.63;;;12.90;94.40;;;;;;5032995;28;20029;-77
2023/10/22 08:56:01;;;;;;;1.40;0.50;;;13.20;94.00;;;;;;5029873;28;20037;-78
2023/10/22 08:58:27;;;;;;;1.52;0.50;;;13.30;91.60;;;;;;5020686;28;20474;-78
2023/10/22 09:00:53;;;;;;;2.92;0.90;;;13.40;91.00;;;;;;5034326;28;20029;-78
2023/10/22 09:03:20;;;;;;;1.48;0.63;;;13.50;91.00;;;;;;5016113;28;20040;-78
2023/10/22 09:05:47;;;;;;;2.28;0.50;;;13.70;90.50;;;;;;5033606;28;21405;-78
2023/10/22 09:08:14;;;;;;;4.53;0.75;;;13.90;88.70;;;;;;5020060;28;20804;-78
2023/10/22 09:10:40;;;;;;;4.80;0.90;;;13.90;87.70;;;;;;5028003;28;20243;-78
2023/10/22 09:13:07;;;;;;;2.13;0.73;;;13.90;87.60;;;;;;5017935;28;20033;-78
2023/10/22 09:15:42;;;;;;;3.03;0.55;;;13.70;87.90;;;;;;5029266;28;20043;-78
2023/10/22 09:18:08;;;;;;;3.58;0.73;;;13.90;87.20;;;;;;5023539;28;20029;-78
2023/10/22 09:20:34;;;;;;;1.58;1.00;;;14.00;86.50;;;;;;5039686;28;20500;-78
2023/10/22 09:23:20;;;;;;;4.40;1.00;;;14.10;86.10;;;;;;5021407;28;20021;-78
2023/10/22 09:25:48;;;;;;;6.50;1.10;;;14.10;86.20;;;;;;5035251;28;20120;-77
2023/10/22 09:28:16;;;;;;;5.53;1.30;;;14.30;87.50;;;;;;5025374;28;20029;-77
2023/10/22 09:30:42;;;;;;;7.03;1.40;;;14.50;84.90;;;;;;5033414;28;20489;-78
2023/10/22 09:33:09;;;;;;;7.90;1.20;;;14.50;85.50;;;;;;5025085;28;20043;-78
2023/10/22 09:35:35;;;;;;;9.70;1.98;;;14.70;85.50;;;;;;5031457;28;20029;-78
2023/10/22 09:38:01;;;;;;;10.05;1.67;;;15.00;84.00;;;;;;5021010;28;20052;-78
2023/10/22 09:40:30;;;;;;;6.80;3.20;;;15.10;83.20;;;;;;5032571;28;20117;-77
2023/10/22 09:42:56;;;;;;;;;;;15.30;83.70;;;;;;5016285;28;20024;-78
2023/10/22 09:45:23;;;;;;;3.22;1.02;;;15.60;82.40;;;;;;5034203;28;19916;-78
2023/10/22 09:47:53;;;;;;;1.67;0.70;;;16.10;80.80;;;;;;5037241;28;20061;-78
2023/10/22 09:50:21;;;;;;;2.35;0.77;;;16.30;75.90;;;;;;5030562;28;21518;-78
2023/10/22 09:52:50;;;;;;;4.53;0.95;;;16.50;68.30;;;;;;5038771;28;20020;-78
2023/10/22 09:55:16;;;;;;;;;;;16.40;68.00;;;;;;5022475;28;20153;-78
2023/10/22 09:57:46;;;;;;;4.70;1.40;;;16.10;74.70;;;;;;5032664;28;20373;-78
2023/10/22 10:00:12;;;;;;;1.65;0.70;;;15.80;78.50;;;;;;5023512;28;20047;-78
2023/10/22 10:02:40;;;;;;;3.55;0.80;;;15.70;72.50;;;;;;5032843;28;20041;-78
2023/10/22 10:05:10;;;;;;;4.10;0.98;;;15.70;73.80;;;;;;5024725;28;20037;-78
2023/10/22 10:07:38;;;;;;;5.03;0.80;;;15.70;73.80;;;;;;5034190;28;20055;-78
2023/10/22 10:10:06;;;;;;;5.97;1.17;;;15.60;75.70;;;;;;5019540;28;20036;-78
2023/10/22 10:12:34;;;;;;;4.20;1.05;;;15.50;78.50;;;;;;5033755;28;20611;-78
2023/10/22 10:14:59;;;;;;;6.03;0.98;;;15.30;79.70;;;;;;5025147;28;20060;-78
2023/10/22 10:17:25;;;;;;;3.08;1.00;;;15.30;80.20;;;;;;5029973;28;20044;-78
2023/10/22 10:19:51;;;;;;;3.95;0.80;;;15.40;79.60;;;;;;5025086;28;20037;-79
2023/10/22 10:22:38;;;;;;;4.55;0.73;;;15.30;78.00;;;;;;5033859;28;20122;-79
2023/10/22 10:25:26;;;;;;;2.90;1.08;;;15.10;81.30;;;;;;5017232;28;20033;-80
2023/10/22 10:27:53;;;;;;;3.85;0.90;;;14.90;81.20;;;;;;5035111;28;20076;-78
2023/10/22 10:30:20;;;;;;;6.45;1.13;;;14.60;82.00;;;;;;5017356;28;20135;-78
2023/10/22 10:32:49;;;;;;;7.38;1.20;;;14.50;82.80;;;;;;5036945;28;20445;-78
2023/10/22 10:35:15;;;;;;;3.92;1.00;;;14.30;83.80;;;;;;5023970;28;20072;-78
2023/10/22 10:38:21;;;;;;;4.43;0.70;;;14.30;83.70;;;;;;5032987;28;20075;-78
2023/10/22 10:40:51;;;;;;;4.15;0.85;;;14.40;84.60;;;;;;5023348;28;20469;-78
2023/10/22 10:43:18;;;;;;;5.80;0.85;;;14.70;84.80;;;;;;5032012;28;20653;-78
2023/10/22 10:46:24;;;;;;;5.32;0.98;;;14.80;84.10;;;;;;5021520;28;20029;-78
2023/10/22 10:48:49;;;;;;;1.80;0.65;;;14.90;79.60;;;;;;5029475;28;20468;-78
2023/10/22 10:51:20;;;;;;;2.85;0.63;;;14.80;82.00;;;;;;5019458;28;21379;-78
2023/10/22 10:54:12;;;;;;;3.88;0.95;;;14.80;80.30;;;;;;5036404;28;21218;-78
2023/10/22 10:56:58;;;;;;;5.45;0.88;;;14.70;80.70;;;;;;5006053;28;20036;-79
2023/10/22 10:59:25;;;;;;;3.17;0.98;;;14.70;80.80;;;;;;5032843;28;20047;-78
2023/10/22 11:02:10;;;;;;;2.97;0.68;;;14.90;79.80;;;;;;5025290;28;20221;-78
2023/10/22 11:04:38;;;;;;;1.67;0.60;;;15.00;75.70;;;;;;5033159;28;20033;-78
2023/10/22 11:07:05;;;;;;;2.97;0.70;;;15.20;73.40;;;;;;5024906;28;21095;-78
2023/10/22 11:09:33;;;;;;;2.22;0.60;;;15.20;70.40;;;;;;5031141;28;20120;-78
2023/10/22 11:12:03;;;;;;;1.33;0.57;;;15.30;70.50;;;;;;5015143;28;20465;-79
2023/10/22 11:14:30;;;;;;;2.75;0.60;;;15.30;70.90;;;;;;5029954;28;20363;-79
2023/10/22 11:16:57;;;;;;;3.08;0.60;;;15.30;70.70;;;;;;5014227;28;20041;-79
2023/10/22 11:19:25;;;;;;;2.47;0.68;;;15.30;68.50;;;;;;5032784;28;20039;-79
2023/10/22 11:21:52;;;;;;;1.93;0.60;;;15.30;68.10;;;;;;5024491;28;20576;-78
2023/10/22 11:24:19;;;;;;;2.83;0.68;;;15.20;68.40;;;;;;5030034;28;20554;-79
2023/10/22 11:26:47;;;;;;;3.03;0.90;;;15.30;70.70;;;;;;5026645;28;20536;-78
2023/10/22 11:29:14;;;;;;;9.00;0.75;;;15.30;72.20;;;;;;5034413;28;20635;-79
2023/10/22 11:31:51;;;;;;;1.85;0.40;;;15.30;69.00;;;;;;5020520;28;21222;-78
2023/10/22 11:34:17;;;;;;;2.88;0.50;;;15.20;68.50;;;;;;5038860;28;20370;-79
2023/10/22 11:36:43;;;;;;;1.45;0.52;;;15.30;70.60;;;;;;5022044;28;20869;-78
2023/10/22 11:39:23;;;;;;;2.38;0.60;;;15.30;69.20;;;;;;5035391;28;20120;-79
2023/10/22 11:41:58;;;;;;;2.20;0.40;;;15.30;66.00;;;;;;5023615;28;20087;-79
2023/10/22 11:44:43;;;;;;;2.38;0.60;;;15.20;71.10;;;;;;5025889;28;20029;-79
2023/10/22 11:47:26;;;;;;;3.80;0.65;;;15.30;72.50;;;;;;5017601;28;20695;-79
2023/10/22 11:49:54;;;;;;;2.25;0.70;;;15.30;68.20;;;;;;5026109;28;20408;-79
2023/10/22 11:52:47;;;;;;;2.70;0.90;;;15.30;70.00;;;;;;5019551;28;20418;-79
2023/10/22 11:55:12;;;;;;;1.77;0.50;;;15.40;67.70;;;;;;5035390;28;20048;-79
2023/10/22 11:57:39;;;;;;;1.20;0.45;;;15.30;69.30;;;;;;5015108;28;20481;-79
2023/10/22 12:00:09;;;;;;;1.08;0.45;;;15.40;65.60;;;;;;5030643;28;20044;-78
2023/10/22 12:02:35;;;;;;;0.95;0.30;;;15.40;64.40;;;;;;5020861;28;20041;-78
2023/10/22 12:05:01;;;;;;;2.15;0.40;;;15.40;65.40;;;;;;5032501;28;20082;-79
2023/10/22 12:07:27;;;;;;;1.83;0.40;;;15.40;63.20;;;;;;5029889;28;20037;-79
2023/10/22 12:09:53;;;;;;;1.25;0.32;;;15.30;63.60;;;;;;5026834;28;20040;-80
2023/10/22 12:12:20;;;;;;;2.22;0.57;;;15.30;65.10;;;;;;5033467;28;20120;-79
2023/10/22 12:14:46;;;;;;;2.38;0.52;;;15.30;61.90;;;;;;5022075;28;20055;-80
2023/10/22 12:17:12;;;;;;;2.03;0.43;;;15.30;62.40;;;;;;5033652;28;20559;-80
2023/10/22 12:19:38;;;;;;;3.88;0.52;;;15.40;63.80;;;;;;5022582;28;20441;-80
2023/10/22 12:22:04;;;;;;;1.88;0.50;;;15.60;64.40;;;;;;5032220;28;20127;-80
2023/10/22 12:24:31;;;;;;;3.50;0.52;;;15.80;62.10;;;;;;5012386;28;20033;-79
2023/10/22 12:26:57;;;;;;;5.25;0.55;;;15.90;63.10;;;;;;5032777;28;20051;-79
2023/10/22 12:29:23;;;;;;;1.90;0.60;;;16.00;62.40;;;;;;5019063;28;20036;-80
2023/10/22 12:31:48;;;;;;;1.63;0.50;;;16.10;64.00;;;;;;5027956;28;20047;-80
2023/10/22 12:34:14;;;;;;;3.65;0.55;;;16.20;63.10;;;;;;5021015;28;20064;-80
2023/10/22 12:36:40;;;;;;;1.48;0.52;;;16.30;63.40;;;;;;5030960;28;20052;-80
2023/10/22 12:39:07;;;;;;;2.40;0.57;;;16.50;61.50;;;;;;5014306;28;21156;-79
2023/10/22 12:41:34;;;;;;;4.50;0.68;;;16.60;61.70;;;;;;5030788;28;20032;-79
2023/10/22 12:43:59;;;;;;;2.35;0.95;;;16.70;62.50;;;;;;5011127;28;20619;-79
2023/10/22 12:46:25;;;;;;;4.40;0.52;;;16.90;61.80;;;;;;5041149;28;20064;-79
2023/10/22 12:48:52;;;;;;;1.80;0.57;;;17.10;60.00;;;;;;5028874;28;20039;-79
2023/10/22 12:51:18;;;;;;;2.25;0.40;;;17.20;60.20;;;;;;5032029;28;20087;-79
2023/10/22 12:53:46;;;;;;;1.35;0.60;;;17.10;58.80;;;;;;5038174;28;21502;-79
2023/10/22 12:56:13;;;;;;;3.50;0.50;;;17.00;60.80;;;;;;5025304;28;20025;-80